Time;durP1;ratioP1;P1;durP2;ratioP2;P2;SDS_P1;SDS_P2;PMS_P1;PMS_P2;Temp;Humidity;BMP_temperature;BMP_pressure;BME280_temperature;BME280_humidity;BME280_pressure;Samples;Min_cycle;Max_cycle;Signal;HPM_P1;HPM_P2
2022/09/19 00:00:38;;;;;;;0.10;0.10;;;9.40;99.90;;;;;;5046403;28;20188;-79
2022/09/19 00:03:03;;;;;;;0.20;0.20;;;9.40;99.90;;;;;;5029305;28;20227;-79
2022/09/19 00:05:29;;;;;;;0.10;0.10;;;9.40;99.90;;;;;;5028318;28;20209;-79
2022/09/19 00:07:55;;;;;;;0.10;0.10;;;9.40;99.90;;;;;;5030824;28;20187;-78
2022/09/19 00:10:20;;;;;;;0.10;0.10;;;9.40;99.90;;;;;;5027681;28;21142;-80
2022/09/19 00:12:46;;;;;;;0.10;0.10;;;9.40;99.90;;;;;;5030555;28;20206;-79
2022/09/19 00:15:12;;;;;;;0.10;0.10;;;9.40;99.90;;;;;;5029345;28;20295;-79
2022/09/19 00:17:37;;;;;;;0.03;0.03;;;9.40;99.90;;;;;;5030907;28;20182;-79
2022/09/19 00:20:04;;;;;;;1.40;0.30;;;9.40;99.90;;;;;;5031242;28;20547;-78
2022/09/19 00:22:30;;;;;;;0.10;0.10;;;9.40;99.90;;;;;;5033587;28;20195;-78
2022/09/19 00:24:56;;;;;;;0.10;0.10;;;9.40;99.90;;;;;;5030943;28;20206;-78
2022/09/19 00:27:25;;;;;;;0.10;0.10;;;9.40;99.90;;;;;;5027294;28;20193;-79
2022/09/19 00:29:52;;;;;;;0.10;0.10;;;9.40;99.90;;;;;;5029761;28;20192;-79
2022/09/19 00:32:18;;;;;;;0.10;0.10;;;9.40;99.90;;;;;;5030753;28;20258;-79
2022/09/19 00:34:47;;;;;;;0.33;0.30;;;9.40;99.90;;;;;;5026291;28;20199;-79
2022/09/19 00:37:15;;;;;;;0.03;0.03;;;9.40;99.90;;;;;;5032094;28;20180;-79
2022/09/19 00:39:41;;;;;;;0.10;0.10;;;9.50;99.90;;;;;;5030581;28;20644;-79
2022/09/19 00:42:19;;;;;;;0.10;0.10;;;9.50;99.90;;;;;;5031855;28;20186;-78
2022/09/19 00:44:53;;;;;;;0.10;0.10;;;9.50;99.90;;;;;;5029733;28;20427;-79
2022/09/19 00:47:24;;;;;;;0.00;0.00;;;9.50;99.90;;;;;;5028275;28;20227;-79
2022/09/19 00:49:51;;;;;;;0.10;0.10;;;9.60;99.90;;;;;;5027706;28;20185;-78
2022/09/19 00:52:27;;;;;;;0.10;0.10;;;9.60;99.90;;;;;;5028515;28;20326;-79
2022/09/19 00:54:53;;;;;;;2.00;0.53;;;9.60;99.90;;;;;;5020697;28;20262;-78
2022/09/19 00:57:20;;;;;;;0.10;0.10;;;9.70;99.90;;;;;;5027122;28;20186;-79
2022/09/19 00:59:49;;;;;;;0.10;0.10;;;9.70;99.90;;;;;;5028668;28;20192;-79
2022/09/19 01:02:19;;;;;;;0.10;0.10;;;9.80;99.90;;;;;;5026119;28;20613;-79
2022/09/19 01:04:44;;;;;;;0.10;0.10;;;9.70;99.90;;;;;;5026148;28;20225;-79
2022/09/19 01:07:17;;;;;;;0.10;0.10;;;9.80;99.90;;;;;;5026464;28;20198;-79
2022/09/19 01:09:48;;;;;;;0.10;0.10;;;9.80;99.90;;;;;;5025886;28;20713;-79
2022/09/19 01:12:37;;;;;;;0.10;0.10;;;9.80;99.90;;;;;;5027195;28;20218;-79
2022/09/19 01:15:30;;;;;;;0.00;0.00;;;9.80;99.90;;;;;;5025720;28;20243;-79
2022/09/19 01:18:01;;;;;;;0.03;0.03;;;9.80;99.90;;;;;;5024769;28;20560;-79
2022/09/19 01:21:37;;;;;;;0.00;0.00;;;9.80;99.90;;;;;;5029605;28;20182;-79
2022/09/19 01:24:19;;;;;;;0.10;0.10;;;9.90;99.90;;;;;;5025569;28;20210;-79
2022/09/19 01:27:05;;;;;;;0.10;0.10;;;9.90;99.90;;;;;;5026362;28;20187;-79
2022/09/19 01:29:42;;;;;;;0.10;0.10;;;9.80;99.90;;;;;;5029563;28;20257;-79
2022/09/19 01:32:14;;;;;;;0.10;0.10;;;9.80;99.90;;;;;;5025664;28;20242;-79
2022/09/19 01:34:50;;;;;;;0.27;0.23;;;9.90;99.90;;;;;;5025583;28;20239;-78
2022/09/19 01:37:22;;;;;;;0.00;0.00;;;9.90;99.90;;;;;;5029555;28;20189;-79
2022/09/19 01:39:50;;;;;;;0.10;0.10;;;9.90;99.90;;;;;;5027145;28;20190;-79
2022/09/19 01:42:20;;;;;;;0.27;0.27;;;9.90;99.90;;;;;;5042349;28;20194;-79
2022/09/19 01:44:46;;;;;;;0.53;0.53;;;9.90;99.90;;;;;;5026403;28;20210;-79
2022/09/19 01:47:32;;;;;;;0.10;0.10;;;9.80;99.90;;;;;;5032034;28;20190;-79
2022/09/19 01:50:05;;;;;;;0.60;0.60;;;9.90;99.90;;;;;;5031446;28;20212;-79
2022/09/19 01:53:01;;;;;;;0.50;0.30;;;10.00;99.90;;;;;;5031786;28;20208;-79
2022/09/19 01:55:52;;;;;;;0.20;0.20;;;10.00;99.90;;;;;;5032440;28;20213;-79
2022/09/19 01:58:28;;;;;;;0.20;0.20;;;10.10;99.90;;;;;;5032191;28;20657;-79
2022/09/19 02:01:02;;;;;;;0.10;0.10;;;10.10;99.90;;;;;;5032742;28;20183;-79
2022/09/19 02:03:46;;;;;;;0.10;0.10;;;10.10;99.90;;;;;;5033244;28;20804;-79
2022/09/19 02:06:22;;;;;;;0.20;0.20;;;10.10;99.90;;;;;;5031134;28;20207;-78
2022/09/19 02:09:11;;;;;;;0.33;0.33;;;10.20;99.90;;;;;;5032162;28;20179;-79
2022/09/19 02:11:37;;;;;;;0.10;0.10;;;10.30;99.90;;;;;;5034060;28;20204;-79
2022/09/19 02:14:16;;;;;;;0.10;0.10;;;10.30;99.90;;;;;;5033475;28;20259;-79
2022/09/19 02:17:00;;;;;;;1.50;1.13;;;10.30;99.90;;;;;;5033268;28;20177;-79
2022/09/19 02:19:32;;;;;;;0.27;0.27;;;10.30;99.90;;;;;;5030206;28;20225;-79
2022/09/19 02:22:15;;;;;;;0.10;0.10;;;10.30;99.90;;;;;;5033400;28;20286;-79
2022/09/19 02:24:45;;;;;;;0.10;0.10;;;10.30;99.90;;;;;;5030153;28;20207;-79
2022/09/19 02:27:20;;;;;;;0.20;0.20;;;10.30;99.90;;;;;;5047114;28;20249;-79
2022/09/19 02:29:51;;;;;;;0.10;0.10;;;10.40;99.90;;;;;;5032317;28;20206;-80
2022/09/19 02:32:19;;;;;;;1.30;0.30;;;10.40;99.90;;;;;;5032373;28;20225;-79
2022/09/19 02:34:48;;;;;;;0.10;0.10;;;10.40;99.90;;;;;;5028962;28;20217;-79
2022/09/19 02:37:41;;;;;;;0.10;0.10;;;10.40;99.90;;;;;;5028936;28;20292;-79
2022/09/19 02:40:12;;;;;;;0.10;0.10;;;10.40;99.90;;;;;;5031024;28;20180;-79
2022/09/19 02:42:54;;;;;;;1.40;0.30;;;10.50;99.90;;;;;;5032128;28;20290;-79
2022/09/19 02:45:36;;;;;;;0.10;0.10;;;10.50;99.90;;;;;;5030137;28;20218;-79
2022/09/19 02:48:21;;;;;;;0.03;0.03;;;10.50;99.90;;;;;;5032080;28;22094;-79
2022/09/19 02:51:00;;;;;;;0.10;0.10;;;10.50;99.90;;;;;;5032517;28;20312;-79
2022/09/19 02:53:30;;;;;;;0.10;0.10;;;10.50;99.90;;;;;;5031246;28;20785;-79
2022/09/19 02:56:03;;;;;;;0.10;0.10;;;10.50;99.90;;;;;;5031068;28;20591;-79
2022/09/19 02:58:47;;;;;;;1.70;1.60;;;10.40;99.90;;;;;;5029936;28;20668;-79
2022/09/19 03:01:19;;;;;;;0.10;0.10;;;10.50;99.90;;;;;;5031155;28;20188;-79
2022/09/19 03:06:42;;;;;;;0.10;0.10;;;10.50;99.90;;;;;;5031691;28;20245;-79
2022/09/19 03:09:11;;;;;;;0.20;0.20;;;10.50;99.90;;;;;;5028596;28;20188;-79
2022/09/19 03:11:42;;;;;;;2.30;0.30;;;10.50;99.90;;;;;;5030873;28;21026;-79
2022/09/19 03:14:07;;;;;;;0.13;0.13;;;10.60;99.90;;;;;;5028387;28;20205;-79
2022/09/19 03:16:39;;;;;;;0.53;0.23;;;10.60;99.90;;;;;;5020353;28;20191;-79
2022/09/19 03:19:08;;;;;;;0.20;0.20;;;10.60;99.90;;;;;;5026851;28;20183;-79
2022/09/19 03:21:36;;;;;;;0.10;0.10;;;10.60;99.90;;;;;;5028577;28;20186;-79
2022/09/19 03:24:02;;;;;;;0.10;0.10;;;10.60;99.90;;;;;;5029098;28;20207;-79
2022/09/19 03:26:32;;;;;;;0.60;0.60;;;10.70;99.90;;;;;;5029937;28;20198;-79
2022/09/19 03:28:58;;;;;;;8.93;0.73;;;10.60;99.90;;;;;;5029505;28;20205;-79
2022/09/19 03:31:24;;;;;;;0.30;0.27;;;10.70;99.90;;;;;;5030800;28;20220;-79
2022/09/19 03:33:51;;;;;;;0.20;0.20;;;10.70;99.90;;;;;;5029422;28;20616;-79
2022/09/19 03:36:18;;;;;;;0.20;0.20;;;10.80;99.90;;;;;;5025429;28;21080;-79
2022/09/19 03:38:46;;;;;;;0.13;0.13;;;10.70;99.90;;;;;;5031378;28;20183;-79
2022/09/19 03:41:16;;;;;;;0.60;0.33;;;10.70;99.90;;;;;;5030403;28;20194;-79
2022/09/19 03:43:43;;;;;;;0.10;0.10;;;10.70;99.90;;;;;;5030271;28;20208;-79
2022/09/19 03:46:13;;;;;;;0.23;0.23;;;10.70;99.90;;;;;;5028795;28;20247;-79
2022/09/19 03:48:40;;;;;;;0.10;0.10;;;10.80;99.90;;;;;;5030338;28;20237;-79
2022/09/19 03:51:06;;;;;;;0.10;0.10;;;10.70;99.90;;;;;;5031676;28;20227;-79
2022/09/19 03:53:33;;;;;;;0.10;0.10;;;10.80;99.90;;;;;;5030549;28;20576;-79
2022/09/19 03:56:00;;;;;;;0.10;0.10;;;10.80;99.90;;;;;;5029897;28;20211;-80
2022/09/19 03:58:26;;;;;;;0.30;0.30;;;10.80;99.90;;;;;;5026607;28;20196;-79
2022/09/19 04:00:51;;;;;;;0.20;0.20;;;10.90;99.90;;;;;;5030488;28;20189;-79
2022/09/19 04:03:24;;;;;;;0.10;0.10;;;10.90;99.90;;;;;;5028357;28;20721;-79
2022/09/19 04:05:52;;;;;;;0.10;0.10;;;10.90;99.90;;;;;;5026287;28;20217;-79
2022/09/19 04:08:19;;;;;;;0.10;0.10;;;10.90;99.90;;;;;;5029387;28;20439;-79
2022/09/19 04:10:44;;;;;;;0.30;0.30;;;10.90;99.90;;;;;;5029632;28;20667;-79
2022/09/19 04:13:11;;;;;;;0.10;0.10;;;10.90;99.90;;;;;;5027995;28;20209;-79
2022/09/19 04:15:37;;;;;;;0.13;0.13;;;10.80;99.90;;;;;;5028251;28;20181;-79
2022/09/19 04:18:03;;;;;;;0.30;0.30;;;10.80;99.90;;;;;;5030054;28;20208;-79
2022/09/19 04:20:30;;;;;;;0.10;0.10;;;10.90;99.90;;;;;;5029311;28;20223;-79
2022/09/19 04:23:00;;;;;;;0.20;0.20;;;10.90;99.90;;;;;;5029661;28;20198;-79
2022/09/19 04:25:33;;;;;;;0.10;0.10;;;11.00;99.90;;;;;;5029649;28;20933;-79
2022/09/19 04:28:03;;;;;;;0.10;0.10;;;11.10;99.90;;;;;;5025855;28;20194;-79
2022/09/19 04:30:34;;;;;;;0.10;0.10;;;11.10;99.90;;;;;;5033866;28;20201;-79
2022/09/19 04:33:03;;;;;;;0.10;0.10;;;11.10;99.90;;;;;;5033619;28;20203;-79
2022/09/19 04:35:30;;;;;;;0.10;0.10;;;11.10;99.90;;;;;;5031015;28;20206;-79
2022/09/19 04:37:55;;;;;;;0.10;0.10;;;11.10;99.90;;;;;;5036783;28;20181;-79
2022/09/19 04:40:21;;;;;;;0.20;0.20;;;11.10;99.90;;;;;;5032682;28;20216;-80
2022/09/19 04:42:47;;;;;;;4.90;0.20;;;11.00;99.90;;;;;;5031032;28;20196;-79
2022/09/19 04:45:20;;;;;;;0.17;0.17;;;11.00;99.90;;;;;;5030825;28;20207;-79
2022/09/19 04:47:49;;;;;;;0.10;0.10;;;10.90;99.90;;;;;;5031708;28;20192;-79
2022/09/19 04:50:17;;;;;;;0.20;0.20;;;11.00;99.90;;;;;;5031774;28;20288;-79
2022/09/19 04:52:43;;;;;;;0.23;0.20;;;10.90;99.90;;;;;;5032725;28;20228;-79
2022/09/19 04:55:09;;;;;;;0.30;0.30;;;11.00;99.90;;;;;;5032357;28;20248;-80
2022/09/19 04:57:34;;;;;;;0.10;0.10;;;10.90;99.90;;;;;;5032437;28;20272;-79
2022/09/19 05:00:00;;;;;;;0.10;0.10;;;10.90;99.90;;;;;;5032031;28;20222;-79
2022/09/19 05:02:30;;;;;;;0.20;0.20;;;10.90;99.90;;;;;;5032138;28;20482;-79
2022/09/19 05:04:55;;;;;;;0.87;0.20;;;10.90;99.90;;;;;;5033617;28;20211;-79
2022/09/19 05:07:23;;;;;;;0.40;0.40;;;10.90;99.90;;;;;;5031747;28;20191;-79
2022/09/19 05:09:48;;;;;;;0.57;0.30;;;10.90;99.90;;;;;;5030448;28;20246;-79
2022/09/19 05:12:14;;;;;;;0.10;0.10;;;11.00;99.90;;;;;;5033924;28;20238;-78
2022/09/19 05:14:39;;;;;;;1.40;0.30;;;10.90;99.90;;;;;;5029888;28;22205;-79
2022/09/19 05:17:05;;;;;;;0.10;0.10;;;10.90;99.90;;;;;;5032929;28;20183;-79
2022/09/19 05:19:32;;;;;;;0.07;0.07;;;11.00;99.90;;;;;;5031444;28;20187;-79
2022/09/19 05:21:57;;;;;;;0.10;0.10;;;11.00;99.90;;;;;;5032405;28;20191;-79
2022/09/19 05:24:23;;;;;;;0.20;0.20;;;11.00;99.90;;;;;;5030621;28;20275;-81
2022/09/19 05:26:48;;;;;;;0.53;0.50;;;11.10;99.90;;;;;;5030771;28;20666;-79
2022/09/19 05:29:14;;;;;;;0.20;0.20;;;11.00;99.90;;;;;;5031257;28;20183;-78
2022/09/19 05:31:41;;;;;;;0.53;0.30;;;11.00;99.90;;;;;;5033379;28;20217;-79
2022/09/19 05:34:10;;;;;;;0.37;0.20;;;11.00;99.90;;;;;;5027015;28;20284;-79
2022/09/19 05:36:35;;;;;;;1.53;1.43;;;11.10;99.90;;;;;;5031482;28;20195;-79
2022/09/19 05:39:01;;;;;;;0.33;0.33;;;11.10;99.90;;;;;;5027165;28;20552;-79
2022/09/19 05:41:26;;;;;;;0.20;0.20;;;11.20;99.90;;;;;;5032516;28;20705;-79
2022/09/19 05:43:52;;;;;;;0.17;0.17;;;11.20;99.90;;;;;;5032510;28;20200;-79
2022/09/19 05:46:20;;;;;;;0.67;0.30;;;11.20;99.90;;;;;;5029153;28;20588;-80
2022/09/19 05:48:47;;;;;;;0.10;0.10;;;11.30;99.90;;;;;;5031815;28;20192;-79
2022/09/19 05:51:13;;;;;;;0.20;0.17;;;11.30;99.90;;;;;;5030012;28;20197;-79
2022/09/19 05:53:54;;;;;;;0.10;0.10;;;11.40;99.90;;;;;;5031700;28;20267;-79
2022/09/19 05:56:20;;;;;;;0.20;0.20;;;11.30;99.90;;;;;;5033788;28;20668;-79
2022/09/19 05:58:46;;;;;;;0.40;0.37;;;11.40;99.90;;;;;;5032834;28;20188;-79
2022/09/19 06:01:13;;;;;;;0.13;0.13;;;11.40;99.90;;;;;;5031913;28;20196;-81
2022/09/19 06:03:39;;;;;;;0.93;0.40;;;11.40;99.90;;;;;;5032614;28;20239;-79
2022/09/19 06:06:11;;;;;;;0.13;0.13;;;11.50;99.90;;;;;;5031716;28;20653;-79
2022/09/19 06:08:38;;;;;;;0.30;0.30;;;11.50;99.90;;;;;;5032422;28;20179;-79
2022/09/19 06:11:05;;;;;;;0.37;0.37;;;11.50;99.90;;;;;;5031804;28;20181;-79
2022/09/19 06:14:18;;;;;;;0.53;0.47;;;11.50;99.90;;;;;;5030920;28;20213;-79
2022/09/19 06:16:17;;;;;;;2.20;0.40;;;11.60;99.90;;;;;;5032432;28;20216;-79
2022/09/19 06:18:43;;;;;;;0.10;0.10;;;11.70;99.90;;;;;;5031913;28;20182;-79
2022/09/19 06:21:09;;;;;;;1.50;0.20;;;11.70;99.90;;;;;;5033062;28;20739;-79
2022/09/19 06:23:34;;;;;;;0.10;0.10;;;11.70;99.90;;;;;;5029979;28;20248;-79
2022/09/19 06:26:00;;;;;;;0.40;0.30;;;11.70;99.90;;;;;;5030029;28;20574;-79
2022/09/19 06:28:25;;;;;;;0.77;0.20;;;11.70;99.90;;;;;;5027285;28;20660;-79
2022/09/19 06:30:51;;;;;;;0.10;0.10;;;11.70;99.90;;;;;;5030575;28;20604;-79
2022/09/19 06:33:17;;;;;;;0.30;0.30;;;11.70;99.90;;;;;;5030543;28;20253;-79
2022/09/19 06:35:42;;;;;;;0.33;0.30;;;11.60;99.90;;;;;;5030635;28;20185;-79
2022/09/19 06:38:08;;;;;;;0.10;0.10;;;11.60;99.90;;;;;;5034095;28;20246;-79
2022/09/19 06:40:37;;;;;;;0.20;0.20;;;11.60;99.90;;;;;;5030338;28;20203;-79
2022/09/19 06:43:05;;;;;;;0.10;0.10;;;11.60;99.90;;;;;;5030583;28;20181;-79
2022/09/19 06:45:37;;;;;;;0.43;0.40;;;11.70;99.90;;;;;;5029030;28;20216;-79
2022/09/19 06:48:04;;;;;;;0.20;0.20;;;11.70;99.90;;;;;;5031202;28;20291;-79
2022/09/19 06:50:31;;;;;;;0.20;0.10;;;11.70;99.90;;;;;;5031311;28;20908;-79
2022/09/19 06:52:57;;;;;;;0.10;0.10;;;11.70;99.90;;;;;;5029970;28;20608;-80
2022/09/19 06:55:27;;;;;;;0.20;0.20;;;11.90;99.90;;;;;;5029919;28;20201;-79
2022/09/19 06:58:04;;;;;;;0.60;0.60;;;11.90;99.90;;;;;;5034967;28;20211;-80
2022/09/19 07:00:33;;;;;;;0.10;0.10;;;12.00;99.90;;;;;;5033207;28;20185;-80
2022/09/19 07:03:01;;;;;;;2.23;0.30;;;12.20;99.90;;;;;;5031582;28;21035;-79
2022/09/19 07:05:29;;;;;;;0.10;0.10;;;12.60;99.90;;;;;;5030510;28;21107;-80
2022/09/19 07:07:55;;;;;;;0.23;0.20;;;13.00;99.90;;;;;;5028368;28;20219;-79
2022/09/19 07:10:20;;;;;;;0.10;0.10;;;13.20;99.90;;;;;;5031764;28;20219;-79
2022/09/19 07:12:55;;;;;;;1.77;1.40;;;13.20;99.90;;;;;;5032070;28;20196;-78
2022/09/19 07:15:21;;;;;;;0.10;0.10;;;13.20;99.90;;;;;;5032298;28;20216;-79
2022/09/19 07:17:46;;;;;;;0.20;0.20;;;13.10;99.90;;;;;;5032838;28;20173;-79
2022/09/19 07:20:12;;;;;;;0.10;0.10;;;13.20;99.90;;;;;;5032855;28;20184;-79
2022/09/19 07:22:37;;;;;;;0.40;0.40;;;13.10;99.90;;;;;;5033740;28;20920;-79
2022/09/19 07:25:04;;;;;;;1.90;1.80;;;13.00;99.90;;;;;;5035833;28;20748;-79
2022/09/19 07:27:30;;;;;;;0.67;0.33;;;13.10;99.90;;;;;;5030115;28;20192;-79
2022/09/19 07:29:55;;;;;;;0.10;0.10;;;12.80;99.90;;;;;;5032579;28;20203;-79
2022/09/19 07:32:21;;;;;;;0.13;0.13;;;12.80;99.90;;;;;;5031617;28;20303;-79
2022/09/19 07:34:46;;;;;;;0.50;0.50;;;12.90;99.90;;;;;;5032170;28;20207;-80
2022/09/19 07:37:12;;;;;;;0.20;0.20;;;12.90;99.90;;;;;;5034673;28;20242;-79
2022/09/19 07:39:37;;;;;;;0.20;0.20;;;13.00;99.90;;;;;;5030415;28;20759;-79
2022/09/19 07:42:03;;;;;;;0.10;0.10;;;13.10;99.90;;;;;;5032508;28;20189;-79
2022/09/19 07:44:29;;;;;;;0.23;0.23;;;13.40;99.90;;;;;;5032824;28;20223;-80
2022/09/19 07:49:38;;;;;;;0.10;0.10;;;13.30;99.90;;;;;;5032557;28;20305;-79
2022/09/19 07:52:04;;;;;;;0.10;0.10;;;13.20;99.90;;;;;;5031878;28;20331;-79
2022/09/19 07:54:29;;;;;;;0.20;0.20;;;13.20;99.90;;;;;;5030942;28;20733;-79
2022/09/19 07:56:55;;;;;;;0.20;0.20;;;13.20;99.90;;;;;;5029730;28;20179;-79
2022/09/19 07:59:20;;;;;;;0.20;0.20;;;13.20;99.90;;;;;;5030744;28;20184;-79
2022/09/19 08:01:46;;;;;;;0.20;0.20;;;13.10;99.90;;;;;;5027221;28;20183;-79
2022/09/19 08:04:12;;;;;;;0.10;0.10;;;13.20;99.90;;;;;;5031992;28;20289;-79
2022/09/19 08:06:37;;;;;;;0.20;0.20;;;13.30;99.90;;;;;;5028783;28;20255;-79
2022/09/19 08:09:03;;;;;;;0.10;0.10;;;13.40;99.90;;;;;;5028440;28;20610;-79
2022/09/19 08:11:28;;;;;;;0.50;0.50;;;13.50;99.90;;;;;;5031901;28;20201;-79
2022/09/19 08:13:54;;;;;;;0.10;0.10;;;13.60;99.90;;;;;;5029651;28;20669;-79
2022/09/19 08:16:19;;;;;;;2.10;0.57;;;13.40;99.90;;;;;;5026293;28;20189;-79
2022/09/19 08:18:45;;;;;;;0.67;0.63;;;13.60;99.90;;;;;;5028829;28;20204;-80
2022/09/19 08:21:10;;;;;;;0.20;0.20;;;13.70;99.90;;;;;;5030572;28;20278;-79
2022/09/19 08:23:36;;;;;;;0.20;0.20;;;13.70;99.90;;;;;;5027494;28;20209;-79
2022/09/19 08:26:04;;;;;;;0.93;0.77;;;13.80;99.90;;;;;;5028194;28;20192;-79
2022/09/19 08:28:30;;;;;;;0.60;0.60;;;14.00;99.90;;;;;;5030066;28;20200;-79
2022/09/19 08:31:03;;;;;;;2.27;0.57;;;14.20;99.90;;;;;;5030849;28;20170;-79
2022/09/19 08:33:30;;;;;;;0.30;0.30;;;14.30;99.90;;;;;;5029247;28;20732;-79
2022/09/19 08:35:58;;;;;;;0.23;0.23;;;14.20;99.90;;;;;;5030235;28;20263;-79
2022/09/19 08:38:23;;;;;;;0.10;0.10;;;14.10;99.90;;;;;;5029589;28;20320;-79
2022/09/19 08:41:00;;;;;;;0.27;0.20;;;14.20;99.90;;;;;;5028592;28;20287;-79
2022/09/19 08:43:48;;;;;;;1.23;0.30;;;14.30;99.90;;;;;;5027152;28;20200;-79
2022/09/19 08:46:20;;;;;;;0.40;0.33;;;14.20;99.90;;;;;;5026620;28;20239;-79
2022/09/19 08:48:55;;;;;;;0.30;0.27;;;14.20;99.90;;;;;;5028313;28;20291;-79
2022/09/19 08:51:35;;;;;;;0.30;0.30;;;14.30;99.90;;;;;;5027984;28;20245;-79
2022/09/19 08:54:14;;;;;;;0.30;0.30;;;14.50;99.90;;;;;;5029485;28;20268;-80
2022/09/19 08:56:42;;;;;;;0.50;0.33;;;14.60;99.90;;;;;;5029755;28;22078;-80
2022/09/19 08:59:22;;;;;;;0.27;0.27;;;14.80;99.90;;;;;;5028795;28;20297;-80
2022/09/19 09:01:49;;;;;;;0.33;0.33;;;15.00;99.90;;;;;;5029500;28;20189;-80
2022/09/19 09:04:32;;;;;;;0.10;0.10;;;15.00;99.90;;;;;;5027500;28;20210;-80
2022/09/19 09:07:05;;;;;;;0.20;0.20;;;15.30;99.90;;;;;;5028745;28;20822;-80
2022/09/19 09:10:15;;;;;;;0.47;0.47;;;15.80;99.90;;;;;;5029478;28;20186;-80
2022/09/19 09:12:55;;;;;;;0.20;0.20;;;16.50;99.90;;;;;;4974313;28;20203;-80
2022/09/19 09:15:28;;;;;;;0.10;0.10;;;16.80;99.90;;;;;;5024837;28;20232;-80
2022/09/19 09:18:16;;;;;;;0.10;0.10;;;16.80;99.90;;;;;;5034296;28;20178;-80
2022/09/19 09:20:57;;;;;;;4.90;0.53;;;16.60;99.90;;;;;;5034338;28;20220;-80
2022/09/19 09:23:35;;;;;;;0.20;0.20;;;16.60;99.90;;;;;;5032547;28;20182;-80
2022/09/19 09:26:06;;;;;;;0.30;0.30;;;16.60;99.90;;;;;;5029439;28;20277;-80
2022/09/19 09:29:01;;;;;;;0.73;0.73;;;16.50;99.90;;;;;;5032164;28;20252;-81
2022/09/19 09:31:35;;;;;;;0.20;0.20;;;16.70;99.90;;;;;;5032558;28;20180;-81
2022/09/19 09:34:06;;;;;;;0.33;0.33;;;17.10;99.90;;;;;;5031783;28;20210;-81
2022/09/19 09:36:49;;;;;;;0.20;0.20;;;17.10;99.90;;;;;;5027577;28;20195;-81
2022/09/19 09:39:23;;;;;;;0.83;0.40;;;17.40;99.90;;;;;;5033411;28;20196;-80
2022/09/19 09:41:56;;;;;;;0.17;0.17;;;17.40;99.90;;;;;;5031452;28;20212;-81
2022/09/19 09:44:44;;;;;;;1.50;0.90;;;17.30;99.90;;;;;;5032765;28;20205;-81
2022/09/19 09:47:39;;;;;;;0.30;0.30;;;17.40;99.90;;;;;;5034048;28;20189;-81
2022/09/19 09:50:19;;;;;;;3.00;0.50;;;17.30;99.90;;;;;;5033037;28;20189;-81
2022/09/19 09:53:01;;;;;;;0.20;0.20;;;16.50;99.90;;;;;;5032365;28;20208;-81
2022/09/19 09:58:48;;;;;;;0.57;0.53;;;16.30;99.90;;;;;;5033363;28;20185;-80
2022/09/19 10:04:38;;;;;;;0.47;0.30;;;15.50;99.90;;;;;;5032685;28;20224;-80
2022/09/19 10:07:16;;;;;;;0.60;0.60;;;15.40;99.90;;;;;;5032424;28;20219;-81
2022/09/19 10:09:51;;;;;;;1.50;0.40;;;15.90;99.90;;;;;;5033610;28;20185;-80
2022/09/19 10:12:29;;;;;;;0.30;0.20;;;16.00;99.90;;;;;;5049118;28;20241;-80
2022/09/19 10:15:00;;;;;;;0.30;0.30;;;16.00;99.90;;;;;;5034917;28;20552;-81
2022/09/19 10:17:32;;;;;;;1.57;1.50;;;16.20;99.90;;;;;;5031588;28;20194;-80
2022/09/19 10:20:03;;;;;;;0.20;0.20;;;16.30;99.90;;;;;;5033726;28;20791;-80
2022/09/19 10:22:29;;;;;;;0.23;0.23;;;16.20;99.90;;;;;;5033510;28;20666;-80
2022/09/19 10:24:59;;;;;;;0.20;0.20;;;16.20;99.90;;;;;;5033966;28;20203;-80
2022/09/19 10:27:31;;;;;;;0.20;0.20;;;16.50;99.90;;;;;;5029276;28;20198;-80
2022/09/19 10:30:24;;;;;;;0.20;0.20;;;16.60;99.90;;;;;;5032329;28;20188;-80
2022/09/19 10:32:50;;;;;;;5.30;0.30;;;16.60;99.90;;;;;;5032939;28;20207;-80
2022/09/19 10:35:25;;;;;;;0.87;0.50;;;16.70;99.90;;;;;;5035315;28;20209;-80
2022/09/19 10:38:04;;;;;;;0.33;0.33;;;16.70;99.90;;;;;;5032521;28;20201;-80
2022/09/19 10:40:31;;;;;;;4.10;0.67;;;16.60;99.90;;;;;;5032088;28;20181;-80
2022/09/19 10:42:58;;;;;;;0.40;0.40;;;16.40;99.90;;;;;;5032138;28;20275;-81
2022/09/19 10:45:30;;;;;;;0.87;0.67;;;16.40;99.90;;;;;;5029917;28;20822;-81
2022/09/19 10:48:01;;;;;;;0.23;0.23;;;16.30;99.90;;;;;;5028227;28;20182;-80
2022/09/19 10:50:28;;;;;;;0.17;0.17;;;16.40;99.90;;;;;;5032214;28;20697;-80
2022/09/19 10:53:04;;;;;;;0.53;0.37;;;16.50;99.90;;;;;;5028940;28;20199;-80
2022/09/19 10:55:33;;;;;;;0.53;0.53;;;16.30;99.90;;;;;;5031249;28;20208;-80
2022/09/19 10:58:03;;;;;;;0.40;0.40;;;16.50;99.90;;;;;;5033448;28;20182;-80
2022/09/19 11:00:57;;;;;;;3.30;0.53;;;16.90;99.90;;;;;;5031035;28;20190;-80
2022/09/19 11:03:29;;;;;;;0.20;0.20;;;17.30;99.90;;;;;;5029734;28;20302;-80
2022/09/19 11:06:06;;;;;;;0.20;0.20;;;17.20;99.90;;;;;;5032026;28;20216;-80
2022/09/19 11:08:43;;;;;;;0.30;0.30;;;16.90;99.90;;;;;;5028296;28;20182;-80
2022/09/19 11:11:36;;;;;;;0.20;0.20;;;17.10;99.90;;;;;;5030818;28;20188;-80
2022/09/19 11:14:15;;;;;;;0.20;0.20;;;17.20;99.90;;;;;;5030442;28;20202;-80
2022/09/19 11:17:06;;;;;;;5.20;0.53;;;17.60;99.90;;;;;;5028038;28;20235;-80
2022/09/19 11:19:58;;;;;;;0.47;0.33;;;17.80;99.90;;;;;;5030299;28;20190;-80
2022/09/19 11:22:36;;;;;;;8.43;0.40;;;17.80;99.90;;;;;;5031344;28;20194;-80
2022/09/19 11:25:17;;;;;;;0.20;0.20;;;17.60;99.90;;;;;;5028999;28;20646;-80
2022/09/19 11:28:25;;;;;;;0.30;0.30;;;17.60;99.90;;;;;;5033084;28;20631;-81
2022/09/19 11:31:09;;;;;;;0.13;0.13;;;17.60;99.90;;;;;;5028912;28;20554;-80
2022/09/19 11:34:02;;;;;;;1.83;0.33;;;17.50;99.90;;;;;;5031549;28;20211;-80
2022/09/19 11:37:01;;;;;;;0.10;0.10;;;17.50;99.90;;;;;;5029775;28;20190;-80
2022/09/19 11:39:56;;;;;;;0.40;0.40;;;17.90;99.90;;;;;;5030076;28;20214;-80
2022/09/19 11:43:07;;;;;;;0.20;0.20;;;18.40;99.90;;;;;;5031437;28;20189;-80
2022/09/19 11:45:59;;;;;;;1.70;0.30;;;18.60;99.90;;;;;;5031334;28;20213;-80
2022/09/19 11:48:49;;;;;;;0.30;0.30;;;18.70;99.90;;;;;;5032062;28;20670;-81
2022/09/19 11:51:50;;;;;;;0.10;0.10;;;18.20;99.90;;;;;;5031108;28;20212;-80
2022/09/19 11:54:28;;;;;;;0.23;0.23;;;18.90;99.90;;;;;;5032965;28;20225;-80
2022/09/19 11:56:57;;;;;;;0.50;0.50;;;18.40;99.90;;;;;;5030792;28;20555;-80
2022/09/19 11:59:48;;;;;;;0.20;0.20;;;18.10;99.90;;;;;;5031684;28;20198;-80
2022/09/19 12:02:27;;;;;;;0.20;0.20;;;17.80;99.90;;;;;;5031586;28;20285;-81
2022/09/19 12:05:21;;;;;;;1.07;0.60;;;18.00;99.90;;;;;;5028141;28;20198;-80
2022/09/19 12:08:33;;;;;;;0.20;0.20;;;18.30;99.90;;;;;;5030912;28;20234;-80
2022/09/19 12:11:08;;;;;;;0.10;0.10;;;18.40;99.90;;;;;;5022490;28;20252;-80
2022/09/19 12:13:59;;;;;;;0.20;0.20;;;18.20;99.90;;;;;;5030379;28;20283;-80
2022/09/19 12:16:37;;;;;;;0.50;0.50;;;18.20;99.90;;;;;;5027630;28;20695;-81
2022/09/19 12:19:10;;;;;;;0.30;0.30;;;18.50;99.90;;;;;;5026868;28;20933;-81
2022/09/19 12:21:41;;;;;;;0.20;0.20;;;18.60;99.90;;;;;;5027058;28;20174;-80
2022/09/19 12:27:17;;;;;;;0.60;0.60;;;18.10;99.90;;;;;;5034064;28;20941;-80
2022/09/19 12:29:54;;;;;;;0.10;0.10;;;17.80;99.90;;;;;;5030362;28;20192;-80
2022/09/19 12:32:56;;;;;;;0.20;0.20;;;18.40;99.90;;;;;;5032526;28;20208;-80
2022/09/19 12:35:52;;;;;;;0.17;0.17;;;18.40;99.90;;;;;;5009947;28;20213;-80
2022/09/19 12:38:46;;;;;;;4.90;0.47;;;18.50;99.90;;;;;;5030677;28;20174;-80
2022/09/19 12:41:32;;;;;;;0.23;0.23;;;18.90;99.90;;;;;;5031456;28;20505;-80
2022/09/19 12:44:09;;;;;;;0.47;0.30;;;19.00;99.90;;;;;;5033671;28;20213;-80
2022/09/19 12:47:08;;;;;;;0.10;0.10;;;19.20;99.90;;;;;;5030377;28;20280;-80
2022/09/19 12:49:39;;;;;;;0.20;0.20;;;19.20;99.90;;;;;;5029827;28;20185;-80
2022/09/19 12:52:16;;;;;;;0.20;0.20;;;19.30;99.90;;;;;;5034758;28;20268;-80
2022/09/19 12:55:22;;;;;;;0.23;0.23;;;19.30;99.90;;;;;;5034785;28;20197;-80
2022/09/19 12:58:26;;;;;;;0.20;0.20;;;18.90;99.90;;;;;;5024867;28;20581;-80
2022/09/19 13:01:05;;;;;;;0.40;0.40;;;18.80;99.90;;;;;;5001509;28;20275;-80
2022/09/19 13:03:38;;;;;;;0.73;0.30;;;18.30;99.90;;;;;;5032748;28;20201;-80
2022/09/19 13:06:12;;;;;;;0.17;0.17;;;18.50;99.90;;;;;;5036145;28;20553;-80
2022/09/19 13:09:06;;;;;;;0.83;0.50;;;18.90;99.90;;;;;;5036428;28;20199;-80
2022/09/19 13:11:41;;;;;;;0.77;0.23;;;19.00;99.90;;;;;;5033561;28;20185;-80
2022/09/19 13:14:35;;;;;;;0.20;0.20;;;18.90;99.90;;;;;;5032917;28;20289;-80
2022/09/19 13:25:37;;;;;;;0.10;0.10;;;18.70;99.90;;;;;;5034044;28;20714;-80
2022/09/19 13:28:19;;;;;;;0.13;0.13;;;18.70;99.90;;;;;;5031583;28;20186;-80
2022/09/19 13:31:11;;;;;;;0.20;0.20;;;19.10;99.90;;;;;;5030418;28;20187;-80
2022/09/19 13:33:49;;;;;;;0.20;0.20;;;18.90;99.90;;;;;;5028986;28;20210;-80
2022/09/19 13:36:22;;;;;;;0.10;0.10;;;19.30;99.90;;;;;;5030544;28;20964;-80
2022/09/19 13:38:52;;;;;;;0.20;0.20;;;19.30;99.90;;;;;;5032200;28;20189;-80
2022/09/19 13:41:26;;;;;;;0.10;0.10;;;19.00;99.90;;;;;;5031635;28;20178;-80
2022/09/19 13:43:55;;;;;;;0.50;0.30;;;18.70;99.90;;;;;;5029315;28;20205;-80